Time;durP1;ratioP1;P1;durP2;ratioP2;P2;SDS_P1;SDS_P2;PMS_P1;PMS_P2;Temp;Humidity;BMP_temperature;BMP_pressure;BME280_temperature;BME280_humidity;BME280_pressure;Samples;Min_cycle;Max_cycle;Signal;HPM_P1;HPM_P2
2022/06/28 00:01:13;;;;;;;28.65;6.38;;;;;;;20.34;100.00;99684.84;10415969;28;20041;-67
2022/06/28 00:06:14;;;;;;;19.25;5.40;;;;;;;21.07;100.00;99817.88;10416361;28;20060;-67
2022/06/28 00:11:15;;;;;;;33.17;6.30;;;;;;;21.00;100.00;99807.28;10415730;28;20037;-67
2022/06/28 00:16:16;;;;;;;25.33;6.28;;;;;;;20.92;100.00;99802.28;10416341;28;20065;-66
2022/06/28 00:21:18;;;;;;;22.67;5.43;;;;;;;20.78;100.00;99809.09;10415843;28;20041;-66
2022/06/28 00:26:19;;;;;;;20.35;4.65;;;;;;;19.92;100.00;99659.16;10414882;28;20143;-66
2022/06/28 00:31:21;;;;;;;23.58;5.03;;;;;;;19.82;100.00;99648.25;10414793;28;20124;-66
2022/06/28 00:36:22;;;;;;;21.88;4.68;;;;;;;20.46;100.00;99753.84;10415420;28;20128;-69
2022/06/28 00:41:23;;;;;;;19.25;4.70;;;;;;;20.49;100.00;99790.28;10414748;28;20057;-67
2022/06/28 00:46:24;;;;;;;31.52;5.28;;;;;;;20.27;100.00;99761.38;10414255;28;20555;-67
2022/06/28 00:51:25;;;;;;;18.77;4.65;;;;;;;20.43;100.00;99794.81;10414388;28;20076;-66
2022/06/28 00:56:26;;;;;;;24.17;4.93;;;;;;;20.23;100.00;99776.44;10414565;28;20060;-67
2022/06/28 01:01:27;;;;;;;21.00;5.22;;;;;;;20.21;100.00;99796.59;10415443;28;20128;-66
2022/06/28 01:06:29;;;;;;;22.60;4.88;;;;;;;20.39;100.00;99815.25;10413131;28;20042;-66
2022/06/28 01:11:31;;;;;;;21.98;4.28;;;;;;;20.33;100.00;99820.81;10412719;28;20068;-67
2022/06/28 01:16:33;;;;;;;16.60;4.47;;;;;;;20.31;100.00;99834.53;10414587;28;20452;-67
2022/06/28 01:21:36;;;;;;;27.58;5.05;;;;;;;19.65;100.00;99753.31;10413618;28;20103;-67
2022/06/28 01:26:37;;;;;;;11.23;4.47;;;;;;;20.23;100.00;99843.84;10413142;28;20090;-66
2022/06/28 01:31:39;;;;;;;20.60;5.03;;;;;;;20.20;100.00;99865.09;10413530;28;20049;-67
2022/06/28 01:36:40;;;;;;;14.95;4.43;;;;;;;20.09;100.00;99844.41;10414042;28;20044;-67
2022/06/28 01:41:41;;;;;;;18.85;5.20;;;;;;;20.20;100.00;99857.81;10412779;28;20550;-66
2022/06/28 01:46:42;;;;;;;16.27;4.50;;;;;;;20.16;100.00;99850.44;10412916;28;20054;-67
2022/06/28 01:51:42;;;;;;;14.18;4.03;;;;;;;20.18;100.00;99862.63;10412990;28;20470;-67
2022/06/28 01:56:43;;;;;;;20.38;4.22;;;;;;;19.54;100.00;99779.25;10420448;28;20045;-66
2022/06/28 02:01:44;;;;;;;23.60;4.55;;;;;;;19.88;100.00;99832.44;10421556;28;20047;-67
2022/06/28 02:06:45;;;;;;;15.88;4.20;;;;;;;20.16;100.00;99891.75;10421445;28;20033;-67
2022/06/28 02:11:46;;;;;;;18.50;3.90;;;;;;;20.22;100.00;99892.63;10420300;28;20042;-67
2022/06/28 02:16:47;;;;;;;13.73;4.13;;;;;;;20.29;100.00;99896.00;10420596;28;20029;-67
2022/06/28 02:21:48;;;;;;;20.35;4.10;;;;;;;20.08;100.00;99869.75;10420106;28;20041;-67
2022/06/28 02:26:49;;;;;;;17.15;4.35;;;;;;;20.26;100.00;99912.69;10420238;28;20056;-67
2022/06/28 02:31:50;;;;;;;11.25;3.95;;;;;;;20.21;100.00;99896.38;10419385;28;20041;-67
2022/06/28 02:42:10;;;;;;;13.13;3.72;;;;;;;19.89;100.00;99861.81;10419611;28;20072;-67
2022/06/28 02:47:11;;;;;;;16.85;4.65;;;;;;;20.28;100.00;99924.88;10419717;28;20437;-67
2022/06/28 02:52:12;;;;;;;12.50;4.05;;;;;;;20.33;100.00;99921.41;10418695;28;20053;-67
2022/06/28 02:57:12;;;;;;;15.85;3.95;;;;;;;20.44;100.00;99942.13;10418565;28;20051;-67
2022/06/28 03:02:13;;;;;;;18.20;4.18;;;;;;;20.56;100.00;99933.19;10418707;28;20045;-67
2022/06/28 03:07:14;;;;;;;24.70;4.60;;;;;;;20.68;100.00;99929.34;10417478;28;20068;-67
2022/06/28 03:12:15;;;;;;;19.23;4.75;;;;;;;21.10;100.00;99923.53;10383283;28;20124;-67
2022/06/28 03:17:16;;;;;;;11.45;3.60;;;;;;;21.31;100.00;99811.16;10392554;28;20073;-67
2022/06/28 03:22:17;;;;;;;14.60;3.50;;;;;;;23.03;100.00;99893.47;10433702;28;20052;-67
2022/06/28 03:27:17;;;;;;;11.27;2.90;;;;;;;24.19;100.00;99936.84;10417382;28;20049;-68
2022/06/28 03:32:18;;;;;;;13.05;3.00;;;;;;;25.19;98.26;99939.94;10407468;28;20046;-68
2022/06/28 03:37:19;;;;;;;21.30;3.53;;;;;;;26.14;90.13;99951.84;10377034;28;20556;-67
2022/06/28 03:42:20;;;;;;;18.25;4.40;;;;;;;26.80;82.73;99913.28;10376951;28;20107;-67
2022/06/28 03:47:20;;;;;;;19.23;5.47;;;;;;;27.44;77.83;99933.09;10377005;28;20139;-68
2022/06/28 03:52:28;;;;;;;9.70;5.45;;;;;;;27.73;73.14;99902.19;10375707;28;20095;-67
2022/06/28 03:57:29;;;;;;;10.88;3.95;;;;;;;28.19;71.15;99943.38;10376219;28;20180;-68
2022/06/28 04:02:30;;;;;;;9.50;5.47;;;;;;;28.10;69.43;99953.31;10376482;28;20124;-68
2022/06/28 04:07:31;;;;;;;7.05;1.95;;;;;;;27.74;66.74;99948.31;10375043;28;20179;-68
2022/06/28 04:12:31;;;;;;;8.70;2.03;;;;;;;26.66;65.11;99846.91;10395681;28;20049;-75
2022/06/28 04:17:32;;;;;;;12.45;2.72;;;;;;;27.40;64.73;99933.97;10411595;28;20040;-76
2022/06/28 04:22:33;;;;;;;15.48;1.77;;;;;;;27.50;61.86;99925.69;10409754;28;20090;-77
2022/06/28 04:27:34;;;;;;;8.10;1.95;;;;;;;27.42;60.43;99908.03;10412197;28;20045;-79
2022/06/28 04:32:34;;;;;;;8.10;1.80;;;;;;;27.62;59.60;99934.25;10412727;28;20496;-77
2022/06/28 04:37:35;;;;;;;15.25;2.00;;;;;;;27.54;59.10;99932.16;10411120;28;20053;-75
2022/06/28 04:42:36;;;;;;;5.10;1.58;;;;;;;27.54;56.58;99934.91;10407055;28;20061;-76
2022/06/28 04:47:37;;;;;;;6.78;2.00;;;;;;;26.80;56.20;99826.06;10394794;28;20115;-76
2022/06/28 04:52:38;;;;;;;9.35;1.80;;;;;;;27.11;54.56;99858.44;10403233;28;20045;-77
2022/06/28 04:57:39;;;;;;;7.50;1.40;;;;;;;26.49;53.98;99743.00;10413722;28;20099;-76
2022/06/28 05:02:40;;;;;;;4.30;1.63;;;;;;;27.36;54.29;99902.91;10414153;28;20037;-76
2022/06/28 05:07:41;;;;;;;11.43;1.85;;;;;;;27.34;54.90;99907.84;10413239;28;20045;-76
2022/06/28 05:12:42;;;;;;;4.45;1.58;;;;;;;26.58;54.68;99812.13;10414649;28;20049;-75
2022/06/28 05:17:43;;;;;;;6.50;1.52;;;;;;;26.97;53.98;99868.41;10411837;28;20045;-75
2022/06/28 05:22:43;;;;;;;4.18;1.48;;;;;;;27.21;54.17;99901.19;10414553;28;20132;-74
2022/06/28 05:27:44;;;;;;;6.07;1.33;;;;;;;27.42;54.53;99897.09;10413827;28;20043;-76
2022/06/28 05:32:45;;;;;;;9.77;1.30;;;;;;;27.46;53.79;99886.41;10412888;28;20033;-73
2022/06/28 05:37:46;;;;;;;9.77;1.90;;;;;;;27.62;54.89;99884.34;10384218;28;20041;-73
2022/06/28 05:42:47;;;;;;;9.45;1.98;;;;;;;27.77;54.49;99882.22;10402347;28;20588;-74
2022/06/28 05:47:48;;;;;;;7.78;1.80;;;;;;;26.84;54.67;99775.34;10398187;28;20050;-75
2022/06/28 05:52:51;;;;;;;7.70;1.83;;;;;;;27.62;56.00;99903.44;10402543;28;20046;-75
2022/06/28 05:57:52;;;;;;;12.57;1.77;;;;;;;27.94;50.16;99909.03;10408119;28;20402;-75
2022/06/28 06:02:52;;;;;;;17.10;2.22;;;;;;;28.16;48.65;99903.00;10398636;28;20037;-72
2022/06/28 06:07:53;;;;;;;11.32;1.35;;;;;;;28.21;48.04;99896.66;10403295;28;20051;-76
2022/06/28 06:12:54;;;;;;;5.75;1.20;;;;;;;28.25;45.02;99910.53;10404771;28;20068;-70
2022/06/28 06:17:56;;;;;;;4.00;1.10;;;;;;;28.10;43.14;99900.63;10404918;28;20399;-75
2022/06/28 06:22:57;;;;;;;4.70;1.60;;;;;;;28.25;44.19;99889.47;10389307;28;20057;-75
2022/06/28 06:27:58;;;;;;;8.68;1.20;;;;;;;27.64;44.21;99816.63;10371598;28;20045;-73
2022/06/28 06:32:59;;;;;;;5.13;1.42;;;;;;;27.66;44.38;99893.56;10406179;28;20511;-75
2022/06/28 06:38:00;;;;;;;5.68;1.25;;;;;;;27.44;43.32;99899.56;10371426;28;20061;-76
2022/06/28 06:43:01;;;;;;;9.90;1.40;;;;;;;27.62;42.23;99881.63;10413824;28;20081;-76
2022/06/28 06:48:02;;;;;;;6.15;1.17;;;;;;;27.94;43.30;99919.13;10419600;28;20057;-75
2022/06/28 06:53:03;;;;;;;5.18;1.20;;;;;;;28.03;41.90;99846.41;10403283;28;20040;-75
2022/06/28 06:58:04;;;;;;;7.05;1.15;;;;;;;28.36;41.46;99892.84;10379060;28;20436;-73
2022/06/28 07:03:05;;;;;;;3.88;1.30;;;;;;;27.98;42.39;99865.59;10392897;28;20041;-71
2022/06/28 07:08:06;;;;;;;8.07;1.40;;;;;;;27.80;43.72;99869.13;10378412;28;20103;-75
2022/06/28 07:13:06;;;;;;;6.65;1.30;;;;;;;27.03;43.24;99737.22;10377899;28;20042;-74
2022/06/28 07:18:07;;;;;;;5.50;1.33;;;;;;;27.80;43.58;99830.91;10377680;28;20192;-74
2022/06/28 07:23:08;;;;;;;3.88;1.30;;;;;;;28.29;42.10;99867.84;10386297;28;20118;-74
2022/06/28 07:28:10;;;;;;;10.18;1.58;;;;;;;28.26;39.86;99813.81;10385686;28;20050;-76
2022/06/28 07:33:11;;;;;;;6.43;1.40;;;;;;;27.98;40.54;99715.44;10407777;28;20484;-75
2022/06/28 07:38:13;;;;;;;4.72;1.40;;;;;;;29.10;41.80;99850.06;10416529;28;20053;-72
2022/06/28 07:43:13;;;;;;;3.03;1.20;;;;;;;29.32;39.15;99843.09;10416581;28;20068;-76
2022/06/28 07:48:16;;;;;;;8.65;1.77;;;;;;;29.51;40.32;99846.50;10416835;28;20534;-76
2022/06/28 07:53:17;;;;;;;2.92;1.40;;;;;;;29.64;38.50;99857.75;10416613;28;20067;-78
2022/06/28 07:58:18;;;;;;;11.10;1.63;;;;;;;29.73;38.81;99837.53;10417237;28;20496;-76
2022/06/28 08:03:19;;;;;;;6.85;1.30;;;;;;;29.77;39.95;99827.63;10416679;28;20037;-74
2022/06/28 08:08:20;;;;;;;7.82;1.65;;;;;;;30.07;40.21;99857.34;10432177;28;20412;-76
2022/06/28 08:13:22;;;;;;;7.18;1.95;;;;;;;30.11;38.27;99845.44;10416268;28;20037;-75
2022/06/28 08:18:22;;;;;;;6.53;1.40;;;;;;;30.14;37.49;99825.66;10417154;28;20045;-76
2022/06/28 08:23:23;;;;;;;6.25;1.30;;;;;;;30.27;36.22;99840.44;10416512;28;20049;-79
2022/06/28 08:28:24;;;;;;;8.30;1.45;;;;;;;29.80;35.27;99793.34;10416076;28;20041;-76
2022/06/28 08:33:26;;;;;;;6.20;1.17;;;;;;;30.33;37.78;99841.13;10415624;28;20045;-76
2022/06/28 08:38:26;;;;;;;6.13;1.42;;;;;;;30.28;36.65;99836.59;10415779;28;20045;-75
2022/06/28 08:43:31;;;;;;;3.78;1.33;;;;;;;29.75;34.14;99750.47;10416762;28;20057;-74
2022/06/28 08:48:38;;;;;;;2.97;1.27;;;;;;;30.55;35.91;99859.50;10414510;28;20472;-75
2022/06/28 08:53:40;;;;;;;8.20;1.45;;;;;;;29.60;36.65;99698.78;10430085;28;20061;-79
2022/06/28 08:58:43;;;;;;;4.30;1.30;;;;;;;30.67;36.77;99851.50;10414674;28;20080;-76
2022/06/28 09:03:49;;;;;;;3.80;1.30;;;;;;;30.75;35.62;99847.16;10413498;28;20037;-73
2022/06/28 09:08:50;;;;;;;8.55;1.60;;;;;;;30.62;35.38;99821.47;10413326;28;20048;-75
2022/06/28 09:13:51;;;;;;;9.00;1.55;;;;;;;30.97;35.78;99840.88;10414129;28;20124;-75
2022/06/28 09:18:52;;;;;;;8.15;1.50;;;;;;;30.97;35.15;99846.34;10428437;28;20139;-74
2022/06/28 09:23:53;;;;;;;4.03;1.30;;;;;;;30.22;35.72;99723.56;10401338;28;20136;-76
2022/06/28 09:28:54;;;;;;;7.07;1.42;;;;;;;30.92;34.31;99839.06;10388117;28;20140;-75
2022/06/28 09:34:01;;;;;;;6.05;1.30;;;;;;;30.98;34.69;99843.28;10391916;28;20527;-75
2022/06/28 09:39:11;;;;;;;6.97;1.92;;;;;;;30.97;35.07;99847.16;10413173;28;20061;-73
2022/06/28 09:44:11;;;;;;;6.82;1.42;;;;;;;30.85;34.87;99831.28;10413956;28;20095;-76
2022/06/28 09:49:13;;;;;;;2.63;1.15;;;;;;;29.61;36.32;99625.69;10412561;28;20135;-74
2022/06/28 09:54:14;;;;;;;5.78;1.60;;;;;;;30.70;35.48;99807.81;10402301;28;20143;-74
2022/06/28 09:59:15;;;;;;;7.15;1.60;;;;;;;30.91;35.50;99837.47;10412832;28;20047;-70
2022/06/28 10:04:18;;;;;;;3.90;1.20;;;;;;;30.75;35.38;99812.34;10407035;28;20496;-76
2022/06/28 10:09:20;;;;;;;7.13;1.50;;;;;;;30.58;37.00;99749.22;10377176;28;20526;-74
2022/06/28 10:19:42;;;;;;;9.95;1.60;;;;;;;31.10;35.46;99812.50;10420865;28;20083;-74
2022/06/28 10:24:55;;;;;;;9.07;1.42;;;;;;;31.23;35.40;99830.81;10399087;28;20129;-76
2022/06/28 10:30:00;;;;;;;8.35;1.40;;;;;;;31.09;33.27;99832.84;10406825;28;20045;-74
2022/06/28 10:35:01;;;;;;;3.95;1.30;;;;;;;31.03;34.92;99834.13;10420101;28;20049;-75
2022/06/28 10:40:47;;;;;;;4.15;1.20;;;;;;;30.97;33.53;99827.97;10418286;28;20061;-75
2022/06/28 10:46:00;;;;;;;5.43;1.65;;;;;;;30.88;33.45;99841.63;10407962;28;20053;-75
2022/06/28 10:51:03;;;;;;;4.57;1.40;;;;;;;30.58;33.23;99801.31;10412264;28;20072;-75
2022/06/28 10:56:13;;;;;;;2.70;1.20;;;;;;;30.84;32.06;99839.81;10414516;28;20046;-81
2022/06/28 11:01:14;;;;;;;14.57;1.85;;;;;;;30.62;33.14;99805.03;10419171;28;20129;-74
2022/06/28 11:06:15;;;;;;;5.78;1.67;;;;;;;30.84;32.94;99831.59;10408530;28;20132;-73
2022/06/28 11:11:16;;;;;;;3.63;1.30;;;;;;;30.11;33.44;99718.66;10386742;28;20046;-76
2022/06/28 11:16:46;;;;;;;6.20;1.40;;;;;;;30.99;34.90;99839.41;10419582;28;20115;-75
2022/06/28 11:21:47;;;;;;;4.40;1.27;;;;;;;31.06;34.79;99834.28;10417988;28;20413;-75
2022/06/28 11:32:25;;;;;;;4.90;1.40;;;;;;;30.09;33.32;99735.38;10417486;28;20104;-78
2022/06/28 11:37:26;;;;;;;9.75;1.35;;;;;;;30.55;33.77;99845.78;10418431;28;20064;-78
2022/06/28 11:42:28;;;;;;;7.72;1.55;;;;;;;30.23;34.14;99787.41;10418651;28;20151;-76
2022/06/28 11:47:29;;;;;;;20.03;1.90;;;;;;;30.22;33.38;99799.47;10416921;28;20179;-73
2022/06/28 11:52:30;;;;;;;7.90;1.45;;;;;;;30.36;33.05;99833.06;10416810;28;20120;-72
2022/06/28 11:57:31;;;;;;;6.70;1.25;;;;;;;30.32;33.60;99845.78;10417095;28;20045;-77
2022/06/28 12:02:39;;;;;;;12.68;1.55;;;;;;;30.02;32.32;99795.28;10417174;28;20045;-76
2022/06/28 12:07:43;;;;;;;7.65;1.90;;;;;;;30.11;33.91;99831.75;10416643;28;20100;-76
2022/06/28 12:12:43;;;;;;;24.30;1.52;;;;;;;29.57;33.76;99744.00;10417073;28;20435;-72
2022/06/28 12:17:47;;;;;;;12.23;1.40;;;;;;;29.98;33.80;99838.09;10400585;28;20033;-77
2022/06/28 12:23:05;;;;;;;5.43;1.25;;;;;;;30.08;33.63;99845.25;10402466;28;20049;-75
2022/06/28 12:28:06;;;;;;;11.77;2.53;;;;;;;30.04;33.59;99847.81;10387888;28;20037;-78
2022/06/28 12:33:08;;;;;;;5.47;1.23;;;;;;;30.07;33.47;99871.03;10402094;28;20088;-74
2022/06/28 12:38:08;;;;;;;10.43;1.25;;;;;;;29.99;33.12;99851.47;10413973;28;20076;-74
2022/06/28 12:43:09;;;;;;;4.60;1.13;;;;;;;30.02;32.86;99855.53;10415690;28;20061;-77
2022/06/28 12:48:10;;;;;;;4.45;1.20;;;;;;;29.95;32.70;99841.47;10415146;28;20156;-75
2022/06/28 12:53:11;;;;;;;10.35;1.27;;;;;;;30.03;32.69;99859.88;10414725;28;20033;-78
2022/06/28 12:58:12;;;;;;;4.93;1.20;;;;;;;29.91;32.78;99833.03;10414500;28;20045;-78
2022/06/28 13:03:13;;;;;;;5.43;1.55;;;;;;;30.22;33.39;99862.50;10413945;28;20044;-75
2022/06/28 13:08:14;;;;;;;9.48;1.92;;;;;;;29.56;34.13;99727.91;10413866;28;20053;-75
2022/06/28 13:13:19;;;;;;;8.75;1.70;;;;;;;30.32;33.84;99851.28;10415430;28;20037;-76
2022/06/28 13:18:20;;;;;;;6.45;1.98;;;;;;;30.23;34.02;99843.00;10411377;28;20041;-73
2022/06/28 13:23:23;;;;;;;4.88;1.50;;;;;;;30.15;34.36;99845.63;10411931;28;20426;-73
2022/06/28 13:28:25;;;;;;;5.97;1.33;;;;;;;30.13;34.11;99840.47;10412522;28;20049;-76
2022/06/28 13:33:26;;;;;;;9.52;1.73;;;;;;;29.73;33.97;99788.28;10413737;28;20151;-75
2022/06/28 13:38:26;;;;;;;25.20;2.40;;;;;;;29.40;33.95;99729.34;10412374;28;20136;-78
2022/06/28 13:43:33;;;;;;;28.77;3.22;;;;;;;29.95;33.49;99838.72;10414422;28;20504;-76
2022/06/28 13:48:35;;;;;;;8.30;1.40;;;;;;;30.09;33.80;99855.09;10411942;28;20076;-75
2022/06/28 13:53:37;;;;;;;6.50;1.50;;;;;;;29.96;33.33;99848.56;10412426;28;20045;-74
2022/06/28 13:58:38;;;;;;;8.30;1.67;;;;;;;29.87;33.40;99847.66;10413181;28;20045;-76
2022/06/28 14:03:39;;;;;;;5.68;1.30;;;;;;;29.72;33.03;99835.13;10411060;28;20050;-74
2022/06/28 14:08:40;;;;;;;4.63;1.27;;;;;;;28.90;34.03;99728.22;10412495;28;20056;-75
2022/06/28 14:13:41;;;;;;;11.70;2.20;;;;;;;29.19;34.12;99849.34;10412749;28;20039;-75
2022/06/28 14:18:42;;;;;;;6.40;1.38;;;;;;;28.78;33.78;99841.88;10412459;28;20053;-74
2022/06/28 14:23:43;;;;;;;4.88;1.45;;;;;;;27.59;34.13;99691.22;10412005;28;20116;-75
2022/06/28 14:28:44;;;;;;;9.68;1.48;;;;;;;28.59;34.35;99861.09;10412645;28;20606;-76
2022/06/28 14:33:45;;;;;;;7.90;1.30;;;;;;;27.65;34.36;99731.75;10412411;28;20120;-74
2022/06/28 14:38:46;;;;;;;4.90;1.30;;;;;;;28.49;34.15;99910.44;10412527;28;20175;-75
2022/06/28 14:43:47;;;;;;;5.63;1.45;;;;;;;28.36;34.92;99918.28;10412213;28;20038;-74
2022/06/28 14:48:49;;;;;;;6.93;1.67;;;;;;;28.03;35.37;99860.06;10411496;28;20076;-74
2022/06/28 14:53:49;;;;;;;8.57;1.42;;;;;;;27.35;35.40;99794.94;10411926;28;20073;-74
2022/06/28 14:58:50;;;;;;;8.15;1.60;;;;;;;27.97;35.79;99907.63;10411810;28;20135;-76
2022/06/28 15:03:51;;;;;;;9.88;1.80;;;;;;;27.90;36.08;99901.72;10417283;28;20165;-74
2022/06/28 15:08:53;;;;;;;11.25;1.45;;;;;;;27.89;36.47;99905.56;10418842;28;20075;-74
2022/06/28 15:13:53;;;;;;;10.43;1.63;;;;;;;27.90;36.57;99929.84;10418884;28;20038;-75
2022/06/28 15:18:54;;;;;;;6.32;1.48;;;;;;;27.13;36.73;99822.69;10407816;28;20047;-73
2022/06/28 15:34:34;;;;;;;13.15;1.92;;;;;;;27.71;37.92;99921.59;10417423;28;20403;-75
2022/06/28 15:39:35;;;;;;;9.77;1.90;;;;;;;27.58;37.82;99925.00;10381819;28;20145;-75
2022/06/28 15:44:36;;;;;;;11.13;1.95;;;;;;;26.97;38.09;99846.59;10391961;28;20125;-75
2022/06/28 15:49:37;;;;;;;10.05;1.80;;;;;;;27.39;38.74;99924.16;10375918;28;20050;-75
2022/06/28 15:54:37;;;;;;;9.82;1.95;;;;;;;27.24;38.85;99912.31;10376960;28;20068;-74
2022/06/28 15:59:38;;;;;;;15.45;2.20;;;;;;;27.20;39.74;99914.00;10376044;28;20042;-75
2022/06/28 16:04:39;;;;;;;10.85;3.13;;;;;;;27.20;40.28;99933.09;10375842;28;20038;-74
2022/06/28 16:09:40;;;;;;;13.65;3.17;;;;;;;27.09;40.50;99939.72;10383112;28;20424;-75
2022/06/28 16:14:41;;;;;;;15.65;2.30;;;;;;;26.69;41.26;99891.84;10415379;28;20103;-68
2022/06/28 16:19:42;;;;;;;10.02;2.08;;;;;;;26.79;41.28;99943.53;10415298;28;20080;-68
2022/06/28 16:24:43;;;;;;;15.77;2.13;;;;;;;26.58;41.92;99927.34;10415339;28;20037;-68
2022/06/28 16:29:43;;;;;;;15.07;2.45;;;;;;;26.56;41.78;99940.41;10415533;28;20056;-68
2022/06/28 16:34:44;;;;;;;9.18;1.77;;;;;;;26.47;42.24;99936.66;10415067;28;20037;-69
2022/06/28 16:39:45;;;;;;;8.20;1.73;;;;;;;26.35;42.23;99938.91;10415724;28;20045;-68
2022/06/28 16:44:49;;;;;;;16.02;1.80;;;;;;;26.25;42.31;99949.88;10410117;28;20052;-68
2022/06/28 16:49:50;;;;;;;11.52;2.03;;;;;;;26.14;43.22;99943.66;10424539;28;20064;-67
2022/06/28 16:54:51;;;;;;;16.70;2.00;;;;;;;25.38;43.20;99853.13;10455175;28;20056;-71
2022/06/28 16:59:52;;;;;;;9.13;1.90;;;;;;;25.82;43.64;99944.94;10421490;28;20068;-67
2022/06/28 17:04:53;;;;;;;9.38;2.00;;;;;;;25.06;43.87;99826.31;10423312;28;20045;-68
2022/06/28 17:09:56;;;;;;;11.25;1.98;;;;;;;24.76;44.78;99800.84;10404542;28;20041;-69
2022/06/28 17:14:58;;;;;;;9.95;2.25;;;;;;;25.72;45.02;99978.38;10400167;28;20046;-68
2022/06/28 17:19:58;;;;;;;20.30;1.77;;;;;;;25.56;45.64;99976.00;10401727;28;20037;-67
2022/06/28 17:24:59;;;;;;;18.00;2.42;;;;;;;25.66;45.08;100003.16;10402788;28;20368;-67
2022/06/28 17:30:01;;;;;;;11.90;1.52;;;;;;;25.54;45.80;100011.63;10399558;28;20608;-68
2022/06/28 17:35:01;;;;;;;11.43;1.73;;;;;;;25.40;46.24;100016.03;10405170;28;20045;-68
2022/06/28 17:40:04;;;;;;;9.23;1.88;;;;;;;25.19;46.65;99996.19;10402290;28;20383;-68
2022/06/28 17:45:07;;;;;;;13.23;2.10;;;;;;;24.62;46.87;99919.31;10398439;28;20513;-68
2022/06/28 17:50:10;;;;;;;9.90;2.15;;;;;;;25.24;47.49;100023.38;10404203;28;20052;-68
2022/06/28 17:55:11;;;;;;;20.10;3.23;;;;;;;24.99;48.31;100005.13;10396776;28;20053;-70
2022/06/28 18:00:12;;;;;;;23.05;9.65;;;;;;;25.12;48.47;100036.38;10405149;28;20056;-68
2022/06/28 18:05:13;;;;;;;15.63;7.00;;;;;;;24.84;48.57;99997.78;10403943;28;20037;-67
2022/06/28 18:10:14;;;;;;;8.02;3.13;;;;;;;24.21;49.25;99908.34;10404157;28;20405;-68
2022/06/28 18:15:15;;;;;;;12.15;1.95;;;;;;;24.83;49.25;100026.06;10400404;28;20045;-68
2022/06/28 18:20:16;;;;;;;5.10;1.95;;;;;;;24.50;49.82;99997.47;10404202;28;20098;-67
2022/06/28 18:25:17;;;;;;;4.57;1.35;;;;;;;23.68;49.98;99864.25;10406790;28;20116;-67
2022/06/28 18:30:18;;;;;;;9.73;1.88;;;;;;;23.57;50.60;99866.13;10396269;28;20033;-67
2022/06/28 18:35:19;;;;;;;9.52;1.52;;;;;;;23.86;51.26;99926.16;10407622;28;20132;-67
2022/06/28 18:40:20;;;;;;;10.60;1.40;;;;;;;24.21;52.26;100006.06;10408903;28;20504;-67
2022/06/28 18:45:21;;;;;;;3.63;1.27;;;;;;;23.97;52.82;99984.00;10407978;28;20033;-67
2022/06/28 18:50:22;;;;;;;4.68;1.50;;;;;;;23.49;53.51;99910.00;10408863;28;20049;-67
2022/06/28 18:55:23;;;;;;;10.48;1.60;;;;;;;24.03;55.23;100003.81;10401245;28;20049;-68
2022/06/28 19:00:24;;;;;;;9.40;1.75;;;;;;;23.87;54.55;99981.22;10424886;28;20116;-67
2022/06/28 19:05:25;;;;;;;8.77;2.00;;;;;;;23.81;54.84;99963.28;10411918;28;20110;-67
2022/06/28 19:10:26;;;;;;;6.97;1.50;;;;;;;23.92;55.06;100000.25;10408393;28;20124;-67
2022/06/28 19:15:27;;;;;;;6.78;1.45;;;;;;;23.73;55.33;99985.53;10405934;28;20520;-67
2022/06/28 19:20:27;;;;;;;8.57;1.77;;;;;;;23.60;55.45;99974.03;10411327;28;20041;-67
2022/06/28 19:25:28;;;;;;;13.70;1.90;;;;;;;23.68;56.59;100013.38;10406831;28;20059;-67
2022/06/28 19:30:29;;;;;;;6.03;1.85;;;;;;;23.62;57.60;100009.00;10405656;28;20094;-67
2022/06/28 19:35:30;;;;;;;12.13;1.38;;;;;;;23.56;57.45;100012.78;10402795;28;20046;-67
2022/06/28 19:40:31;;;;;;;9.07;1.60;;;;;;;23.23;57.54;99974.06;10385100;28;20112;-67
2022/06/28 19:45:32;;;;;;;6.28;2.30;;;;;;;23.27;58.34;100004.16;10387565;28;20054;-67
2022/06/28 19:50:33;;;;;;;19.83;2.78;;;;;;;23.08;58.72;100001.88;10375841;28;20046;-67
2022/06/28 19:55:34;;;;;;;11.40;1.70;;;;;;;22.98;59.15;99999.09;10376346;28;20038;-67
2022/06/28 20:00:34;;;;;;;10.70;4.05;;;;;;;22.86;59.68;100001.13;10376349;28;20034;-68
2022/06/28 20:05:36;;;;;;;21.73;10.23;;;;;;;21.38;60.35;99787.50;10375972;28;20045;-67
2022/06/28 20:10:39;;;;;;;20.35;5.55;;;;;;;22.45;62.98;99989.91;10399072;28;20566;-67
2022/06/28 20:15:40;;;;;;;13.38;4.53;;;;;;;21.76;64.36;99896.59;10378638;28;20042;-67
2022/06/28 20:20:40;;;;;;;11.55;4.72;;;;;;;22.20;65.73;100010.19;10374066;28;20041;-67
2022/06/28 20:25:43;;;;;;;12.27;3.30;;;;;;;22.11;65.55;100007.09;10375501;28;20160;-69
2022/06/28 20:30:44;;;;;;;12.13;2.50;;;;;;;22.02;66.70;100013.19;10375046;28;20053;-67
2022/06/28 20:35:44;;;;;;;8.20;2.92;;;;;;;21.64;68.15;99979.72;10405010;28;20484;-68
2022/06/28 20:42:11;;;;;;;6.40;1.95;;;;;;;20.83;69.15;99865.88;10414912;28;20075;-68
2022/06/28 20:46:06;;;;;;;5.53;2.00;;;;;;;21.45;69.65;99986.44;10414787;28;20132;-67
2022/06/28 20:51:07;;;;;;;7.07;1.70;;;;;;;21.67;70.22;100019.75;10414413;28;20131;-67
2022/06/28 20:56:08;;;;;;;9.57;2.13;;;;;;;20.61;71.03;99871.19;10400295;28;20038;-67
2022/06/28 21:01:09;;;;;;;7.45;2.22;;;;;;;20.40;71.77;99862.75;10414035;28;20049;-67
2022/06/28 21:06:09;;;;;;;10.85;2.75;;;;;;;21.31;71.54;100029.19;10414618;28;20128;-67
2022/06/28 21:11:11;;;;;;;11.75;2.10;;;;;;;21.17;71.82;99997.09;10429671;28;20107;-67
2022/06/28 21:16:12;;;;;;;7.72;2.50;;;;;;;20.99;73.31;100000.03;10415245;28;20049;-70
2022/06/28 21:21:13;;;;;;;10.00;2.13;;;;;;;20.80;75.02;99995.94;10414728;28;20493;-67
2022/06/28 21:26:15;;;;;;;7.55;2.10;;;;;;;20.20;76.62;99900.97;10413107;28;20065;-67
2022/06/28 21:31:16;;;;;;;35.05;3.55;;;;;;;20.73;78.07;99988.81;10429160;28;20523;-67
2022/06/28 21:36:17;;;;;;;15.07;3.22;;;;;;;20.18;78.99;99907.66;10413472;28;20120;-68
2022/06/28 21:41:18;;;;;;;12.48;2.55;;;;;;;20.42;79.70;99973.09;10413169;28;20064;-67
2022/06/28 21:46:19;;;;;;;8.55;2.28;;;;;;;20.38;80.75;99988.97;10413977;28;20055;-67
2022/06/28 21:56:39;;;;;;;10.05;2.60;;;;;;;20.28;82.50;100004.94;10413778;28;20045;-67
2022/06/28 22:01:41;;;;;;;6.85;2.40;;;;;;;20.20;83.53;100008.03;10412578;28;20480;-67
2022/06/28 22:06:42;;;;;;;8.43;2.30;;;;;;;20.16;83.77;100009.56;10411841;28;20048;-67
2022/06/28 22:11:43;;;;;;;9.13;2.58;;;;;;;20.14;84.52;100000.91;10416817;28;20041;-67
2022/06/28 22:16:44;;;;;;;6.25;2.88;;;;;;;19.78;84.90;99957.03;10437191;28;20037;-67
2022/06/28 22:21:46;;;;;;;6.63;2.10;;;;;;;19.86;84.84;99978.22;10420972;28;20071;-67
2022/06/28 22:26:48;;;;;;;11.27;2.30;;;;;;;19.71;85.64;99986.78;10420739;28;20068;-67
2022/06/28 22:31:49;;;;;;;21.77;2.88;;;;;;;19.49;86.19;99967.69;10420934;28;20143;-67
2022/06/28 22:36:50;;;;;;;7.13;2.50;;;;;;;19.50;86.49;99979.28;10419768;28;20060;-67
2022/06/28 22:41:51;;;;;;;9.15;2.58;;;;;;;19.45;87.08;99974.63;10419733;28;20064;-67
2022/06/28 22:46:51;;;;;;;11.43;2.88;;;;;;;19.46;87.59;99984.34;10419335;28;20128;-67
2022/06/28 22:51:53;;;;;;;7.80;2.70;;;;;;;19.42;88.21;99985.06;10419473;28;20037;-67
2022/06/28 22:56:55;;;;;;;6.63;2.72;;;;;;;19.29;89.15;99953.78;10435048;28;20385;-67
2022/06/28 23:01:56;;;;;;;10.25;2.58;;;;;;;19.42;89.19;99975.09;10419892;28;20512;-67
2022/06/28 23:06:57;;;;;;;10.63;3.20;;;;;;;19.35;88.98;99971.69;10418628;28;20047;-67
2022/06/28 23:11:57;;;;;;;9.73;3.15;;;;;;;19.29;89.26;99965.34;10418766;28;20517;-67
2022/06/28 23:16:58;;;;;;;7.95;2.92;;;;;;;18.37;89.82;99833.19;10419304;28;20507;-67
2022/06/28 23:21:59;;;;;;;6.20;2.20;;;;;;;19.13;90.14;99966.88;10417876;28;20204;-67
2022/06/28 23:27:00;;;;;;;8.88;2.75;;;;;;;18.17;90.45;99828.94;10417747;28;20132;-67
2022/06/28 23:32:00;;;;;;;7.05;2.47;;;;;;;18.79;91.13;99932.69;10418447;28;20037;-69
2022/06/28 23:37:01;;;;;;;7.60;2.60;;;;;;;17.45;91.44;99717.97;10418566;28;20049;-67
2022/06/28 23:42:03;;;;;;;7.60;2.45;;;;;;;18.02;91.64;99821.28;10417260;28;20057;-67